createdAt,value
2023-05-21T00:00:43.475Z,35.5
2023-05-21T00:01:45.302Z,35.5
2023-05-21T00:02:47.157Z,35.5
2023-05-21T00:03:49.604Z,35.5
2023-05-21T00:04:52.123Z,35.5
2023-05-21T00:05:53.932Z,35.5
2023-05-21T00:06:55.676Z,35.5
2023-05-21T00:07:57.461Z,35.4
2023-05-21T00:08:59.297Z,35.4
2023-05-21T00:10:01.261Z,35.4
2023-05-21T00:11:02.913Z,35.5
2023-05-21T00:12:04.727Z,35.5
2023-05-21T00:13:06.411Z,35.4
2023-05-21T00:14:08.210Z,35.4
2023-05-21T00:15:10.102Z,35.5
2023-05-21T00:16:12.160Z,35.5
2023-05-21T00:17:14.010Z,35.5
2023-05-21T00:18:15.961Z,35.5
2023-05-21T00:19:17.736Z,35.5
2023-05-21T00:20:19.894Z,35.5
2023-05-21T00:21:21.608Z,35.5
2023-05-21T00:22:23.458Z,35.5
2023-05-21T00:23:25.201Z,35.5
2023-05-21T00:24:27.048Z,35.5
2023-05-21T00:25:28.787Z,35.5
2023-05-21T00:26:30.375Z,35.5
2023-05-21T00:27:34.881Z,35.5
2023-05-21T00:28:36.517Z,35.5
2023-05-21T00:29:38.169Z,35.6
2023-05-21T00:30:39.907Z,35.5
2023-05-21T00:31:41.985Z,35.6
2023-05-21T00:32:44.247Z,35.6
2023-05-21T00:33:46.276Z,35.5
2023-05-21T00:34:48.108Z,35.5
2023-05-21T00:35:49.795Z,35.5
2023-05-21T00:36:51.509Z,35.5
2023-05-21T00:37:53.363Z,35.5
2023-05-21T00:38:55.155Z,35.5
2023-05-21T00:39:58.639Z,35.5
2023-05-21T00:41:00.348Z,35.5
2023-05-21T00:42:02.201Z,35.6
2023-05-21T00:43:04.057Z,35.6
2023-05-21T00:44:05.646Z,35.5
2023-05-21T00:45:07.257Z,35.6
2023-05-21T00:46:09.118Z,35.6
2023-05-21T00:47:11.036Z,35.6
2023-05-21T00:48:12.863Z,35.6
2023-05-21T00:49:14.524Z,35.6
2023-05-21T00:50:16.382Z,35.6
2023-05-21T00:51:18.401Z,35.6
2023-05-21T00:52:20.590Z,35.6
2023-05-21T00:53:22.446Z,35.6
2023-05-21T00:54:24.267Z,35.6
2023-05-21T00:55:26.010Z,35.6
2023-05-21T00:56:28.256Z,35.6
2023-05-21T00:57:30.344Z,35.6
2023-05-21T00:58:32.203Z,35.6
2023-05-21T00:59:34.035Z,35.6
2023-05-21T01:00:35.799Z,35.7
2023-05-21T01:01:37.874Z,35.7
2023-05-21T01:02:39.963Z,35.7
2023-05-21T01:03:42.301Z,35.7
2023-05-21T01:04:44.218Z,35.7
2023-05-21T01:05:46.083Z,35.7
2023-05-21T01:06:48.056Z,35.7
2023-05-21T01:07:49.902Z,35.7
2023-05-21T01:08:51.611Z,35.7
2023-05-21T01:09:53.433Z,35.6
2023-05-21T01:10:55.110Z,35.6
2023-05-21T01:11:56.971Z,35.6
2023-05-21T01:12:58.697Z,35.6
2023-05-21T01:14:00.292Z,35.6
2023-05-21T01:15:01.982Z,35.7
2023-05-21T01:16:03.852Z,35.7
2023-05-21T01:17:05.737Z,35.7
2023-05-21T01:18:07.793Z,35.6
2023-05-21T01:19:09.727Z,35.7
2023-05-21T01:20:12.168Z,35.7
2023-05-21T01:21:14.129Z,35.6
2023-05-21T01:22:16.101Z,35.7
2023-05-21T01:23:17.879Z,35.7
2023-05-21T01:24:19.585Z,35.6
2023-05-21T01:25:21.331Z,35.6
2023-05-21T01:26:23.119Z,35.6
2023-05-21T01:27:24.849Z,35.6
2023-05-21T01:28:26.678Z,35.6
2023-05-21T01:29:28.353Z,35.7
2023-05-21T01:30:30.135Z,35.7
2023-05-21T01:31:31.815Z,35.7
2023-05-21T01:32:33.784Z,35.7
2023-05-21T01:33:36.076Z,35.7
2023-05-21T01:34:38.999Z,35.7
2023-05-21T01:35:42.288Z,35.7
2023-05-21T01:36:44.137Z,35.8
2023-05-21T01:37:45.923Z,35.8
2023-05-21T01:38:47.745Z,35.7
2023-05-21T01:39:49.686Z,35.7
2023-05-21T01:40:51.328Z,35.7
2023-05-21T01:41:52.971Z,35.7
2023-05-21T01:42:54.823Z,35.8
2023-05-21T01:43:56.679Z,35.8
2023-05-21T01:44:58.559Z,35.8
2023-05-21T01:46:00.428Z,35.8
2023-05-21T01:47:02.324Z,35.8
2023-05-21T01:48:04.318Z,35.8
2023-05-21T01:49:06.464Z,35.8
2023-05-21T01:50:08.297Z,35.8
2023-05-21T01:51:10.127Z,35.8
2023-05-21T01:52:11.890Z,35.8
2023-05-21T01:53:13.751Z,35.8
2023-05-21T01:54:15.515Z,35.8
2023-05-21T01:55:17.171Z,35.8
2023-05-21T01:56:18.879Z,35.8
2023-05-21T01:57:20.721Z,35.8
2023-05-21T01:58:22.488Z,35.8
2023-05-21T01:59:24.124Z,35.8
2023-05-21T02:00:25.900Z,35.8
2023-05-21T02:01:27.582Z,35.9
2023-05-21T02:02:29.542Z,35.9
2023-05-21T02:03:32.123Z,35.8
2023-05-21T02:04:34.297Z,35.9
2023-05-21T02:05:36.549Z,35.8
2023-05-21T02:06:39.286Z,35.8
2023-05-21T02:07:40.963Z,35.8
2023-05-21T02:08:42.739Z,35.8
2023-05-21T02:09:44.449Z,35.8
2023-05-21T02:10:46.108Z,35.8
2023-05-21T02:11:47.832Z,35.8
2023-05-21T02:12:49.697Z,35.8
2023-05-21T02:13:51.447Z,35.8
2023-05-21T02:14:53.316Z,35.9
2023-05-21T02:15:55.565Z,35.9
2023-05-21T02:16:57.418Z,35.9
2023-05-21T02:17:59.402Z,35.9
2023-05-21T02:19:01.451Z,35.9
2023-05-21T02:20:03.231Z,35.9
2023-05-21T02:21:05.017Z,35.9
2023-05-21T02:22:06.879Z,35.9
2023-05-21T02:23:08.661Z,35.9
2023-05-21T02:24:10.499Z,35.9
2023-05-21T02:25:12.425Z,35.9
2023-05-21T02:26:14.373Z,35.9
2023-05-21T02:27:16.249Z,35.9
2023-05-21T02:28:18.072Z,35.9
2023-05-21T02:29:20.045Z,35.9
2023-05-21T02:30:21.904Z,35.9
2023-05-21T02:31:23.734Z,35.9
2023-05-21T02:32:25.718Z,35.9
2023-05-21T02:33:27.627Z,35.9
2023-05-21T02:34:29.389Z,35.9
2023-05-21T02:35:31.160Z,35.9
2023-05-21T02:36:32.827Z,35.9
2023-05-21T02:37:34.533Z,35.9
2023-05-21T02:38:36.442Z,35.8
2023-05-21T02:39:38.170Z,35.8
2023-05-21T02:40:40.285Z,35.8
2023-05-21T02:41:42.156Z,35.9
2023-05-21T02:42:44.184Z,35.9
2023-05-21T02:43:45.982Z,35.9
2023-05-21T02:44:47.664Z,35.8
2023-05-21T02:45:49.310Z,35.9
2023-05-21T02:46:51.072Z,35.8
2023-05-21T02:47:53.190Z,35.8
2023-05-21T02:48:57.837Z,35.8
2023-05-21T02:49:59.628Z,35.8
2023-05-21T02:51:01.362Z,35.8
2023-05-21T02:52:03.288Z,35.8
2023-05-21T02:53:05.135Z,35.8
2023-05-21T02:54:06.756Z,35.7
2023-05-21T02:55:08.449Z,35.7
2023-05-21T02:56:10.279Z,35.7
2023-05-21T02:57:12.438Z,35.7
2023-05-21T02:58:14.236Z,35.7
2023-05-21T02:59:15.823Z,35.7
2023-05-21T03:00:17.460Z,35.7
2023-05-21T03:01:19.370Z,35.6
2023-05-21T03:02:21.547Z,35.6
2023-05-21T03:03:24.054Z,35.6
2023-05-21T03:04:26.168Z,35.6
2023-05-21T03:05:27.767Z,35.6
2023-05-21T03:06:29.434Z,35.6
2023-05-21T03:07:31.079Z,35.7
2023-05-21T03:08:32.710Z,35.7
2023-05-21T03:09:34.421Z,35.7
2023-05-21T03:10:36.050Z,35.6
2023-05-21T03:11:37.665Z,35.6
2023-05-21T03:12:39.318Z,35.6
2023-05-21T03:13:41.178Z,35.6
2023-05-21T03:14:43.061Z,35.6
2023-05-21T03:15:44.906Z,35.6
2023-05-21T03:16:46.772Z,35.6
2023-05-21T03:17:48.843Z,35.6
2023-05-21T03:18:50.895Z,35.6
2023-05-21T03:19:52.933Z,35.6
2023-05-21T03:20:54.721Z,35.6
2023-05-21T03:21:56.337Z,35.6
2023-05-21T03:22:58.027Z,35.6
2023-05-21T03:23:59.709Z,35.6
2023-05-21T03:25:01.379Z,35.6
2023-05-21T03:26:03.349Z,35.6
2023-05-21T03:27:05.164Z,35.6
2023-05-21T03:28:06.794Z,35.6
2023-05-21T03:29:08.496Z,35.6
2023-05-21T03:30:10.093Z,35.6
2023-05-21T03:31:11.702Z,35.6
2023-05-21T03:32:13.611Z,35.5
2023-05-21T03:33:15.948Z,35.5
2023-05-21T03:34:17.672Z,35.5
2023-05-21T03:35:19.358Z,35.5
2023-05-21T03:36:21.199Z,35.5
2023-05-21T03:37:23.094Z,35.5
2023-05-21T03:38:24.702Z,35.4
2023-05-21T03:39:26.365Z,35.5
2023-05-21T03:40:28.010Z,35.5
2023-05-21T03:41:29.719Z,35.5
2023-05-21T03:42:31.480Z,35.5
2023-05-21T03:43:33.439Z,35.5
2023-05-21T03:44:35.118Z,35.5
2023-05-21T03:45:37.583Z,35.5
2023-05-21T03:46:42.428Z,35.5
2023-05-21T03:47:44.536Z,35.5
2023-05-21T03:48:46.322Z,35.5
2023-05-21T03:49:48.086Z,35.5
2023-05-21T03:50:49.741Z,35.4
2023-05-21T03:51:51.614Z,35.4
2023-05-21T03:52:53.215Z,35.5
2023-05-21T03:53:54.836Z,35.5
2023-05-21T03:54:56.475Z,35.5
2023-05-21T03:55:58.274Z,35.5
2023-05-21T03:57:00.384Z,35.5
2023-05-21T03:58:02.199Z,35.5
2023-05-21T03:59:04.064Z,35.5
2023-05-21T04:00:05.738Z,35.5
2023-05-21T04:01:07.469Z,35.5
2023-05-21T04:02:09.139Z,35.5
2023-05-21T04:03:11.314Z,35.5
2023-05-21T04:04:13.715Z,35.5
2023-05-21T04:05:15.826Z,35.4
2023-05-21T04:06:17.399Z,35.4
2023-05-21T04:07:18.990Z,35.4
2023-05-21T04:08:20.619Z,35.4
2023-05-21T04:09:22.219Z,35.4
2023-05-21T04:10:23.899Z,35.4
2023-05-21T04:11:25.474Z,35.4
2023-05-21T04:12:27.412Z,35.4
2023-05-21T04:13:29.229Z,35.4
2023-05-21T04:14:30.875Z,35.4
2023-05-21T04:15:32.485Z,35.5
2023-05-21T04:16:34.394Z,35.5
2023-05-21T04:17:36.521Z,35.5
2023-05-21T04:18:38.223Z,35.5
2023-05-21T04:19:40.065Z,35.5
2023-05-21T04:20:41.903Z,35.5
2023-05-21T04:21:43.493Z,35.5
2023-05-21T04:22:45.106Z,35.5
2023-05-21T04:23:46.714Z,35.5
2023-05-21T04:24:48.393Z,35.5
2023-05-21T04:25:50.095Z,35.6
2023-05-21T04:26:51.732Z,35.6
2023-05-21T04:27:53.368Z,35.6
2023-05-21T04:28:55.011Z,35.6
2023-05-21T04:29:56.691Z,35.6
2023-05-21T04:30:58.366Z,35.6
2023-05-21T04:32:00.125Z,35.5
2023-05-21T04:33:01.939Z,35.6
2023-05-21T04:34:03.749Z,35.6
2023-05-21T04:35:05.340Z,35.6
2023-05-21T04:36:06.921Z,35.6
2023-05-21T04:37:08.499Z,35.6
2023-05-21T04:38:10.121Z,35.6
2023-05-21T04:39:11.751Z,35.6
2023-05-21T04:40:13.436Z,35.6
2023-05-21T04:41:15.278Z,35.5
2023-05-21T04:42:17.039Z,35.5
2023-05-21T04:43:18.782Z,35.6
2023-05-21T04:44:20.675Z,35.5
2023-05-21T04:45:22.308Z,35.5
2023-05-21T04:46:23.956Z,35.4
2023-05-21T04:47:25.856Z,35.6
2023-05-21T04:48:27.697Z,35.5
2023-05-21T04:49:29.375Z,35.5
2023-05-21T04:50:31.233Z,35.5
2023-05-21T04:51:32.883Z,35.5
2023-05-21T04:52:34.468Z,35.5
2023-05-21T04:53:36.082Z,35.5
2023-05-21T04:54:37.721Z,35.5
2023-05-21T04:55:39.288Z,35.5
2023-05-21T04:56:40.968Z,35.6
2023-05-21T04:57:42.586Z,35.6
2023-05-21T04:58:44.376Z,35.5
2023-05-21T04:59:45.984Z,35.5
2023-05-21T05:00:47.803Z,35.6
2023-05-21T05:01:49.518Z,35.5
2023-05-21T05:02:51.463Z,35.4
2023-05-21T05:03:53.685Z,35.6
2023-05-21T05:04:55.811Z,35.5
2023-05-21T05:05:57.448Z,35.5
2023-05-21T05:06:59.138Z,35.5
2023-05-21T05:08:00.775Z,35.5
2023-05-21T05:09:02.393Z,35.5
2023-05-21T05:10:04.079Z,35.5
2023-05-21T05:11:05.647Z,35.6
2023-05-21T05:12:07.333Z,35.6
2023-05-21T05:13:08.981Z,35.6
2023-05-21T05:14:10.659Z,35.6
2023-05-21T05:15:12.397Z,35.7
2023-05-21T05:16:14.131Z,35.7
2023-05-21T05:17:15.933Z,35.7
2023-05-21T05:18:17.546Z,35.7
2023-05-21T05:19:19.370Z,35.8
2023-05-21T05:20:21.268Z,35.8
2023-05-21T05:21:22.974Z,35.8
2023-05-21T05:22:24.541Z,35.7
2023-05-21T05:23:26.180Z,35.8
2023-05-21T05:24:27.742Z,35.9
2023-05-21T05:25:29.357Z,35.9
2023-05-21T05:26:31.002Z,35.9
2023-05-21T05:27:32.632Z,35.8
2023-05-21T05:28:34.277Z,35.8
2023-05-21T05:29:35.990Z,35.7
2023-05-21T05:30:38.020Z,35.8
2023-05-21T05:31:40.010Z,35.7
2023-05-21T05:32:42.275Z,35.6
2023-05-21T05:33:44.022Z,35.7
2023-05-21T05:34:45.604Z,35.6
2023-05-21T05:35:47.204Z,35.6
2023-05-21T05:36:48.926Z,35.6
2023-05-21T05:37:50.530Z,35.6
2023-05-21T05:38:52.145Z,35.6
2023-05-21T05:39:53.758Z,35.6
2023-05-21T05:40:55.733Z,35.6
2023-05-21T05:41:57.588Z,35.6
2023-05-21T05:42:59.171Z,35.5
2023-05-21T05:44:00.780Z,35.6
2023-05-21T05:45:02.378Z,35.5
2023-05-21T05:46:04.099Z,35.5
2023-05-21T05:47:06.234Z,35.6
2023-05-21T05:48:07.893Z,35.6
2023-05-21T05:49:09.879Z,35.5
2023-05-21T05:50:11.666Z,35.5
2023-05-21T05:51:13.630Z,35.5
2023-05-21T05:52:15.269Z,35.5
2023-05-21T05:53:17.012Z,35.5
2023-05-21T05:54:18.801Z,35.6
2023-05-21T05:55:20.439Z,35.6
2023-05-21T05:56:22.062Z,35.5
2023-05-21T05:57:23.706Z,35.6
2023-05-21T05:58:25.439Z,35.6
2023-05-21T05:59:27.280Z,35.6
2023-05-21T06:00:29.038Z,35.5
2023-05-21T06:01:30.735Z,35.5
2023-05-21T06:02:32.659Z,35.6
2023-05-21T06:03:35.301Z,35.6
2023-05-21T06:04:37.421Z,35.5
2023-05-21T06:05:39.760Z,35.5
2023-05-21T06:06:42.435Z,35.5
2023-05-21T06:07:44.096Z,35.5
2023-05-21T06:08:45.835Z,35.5
2023-05-21T06:09:47.600Z,35.5
2023-05-21T06:10:49.238Z,35.4
2023-05-21T06:11:50.861Z,35.4
2023-05-21T06:12:52.569Z,35.3
2023-05-21T06:13:54.418Z,35.3
2023-05-21T06:14:56.019Z,35.3
2023-05-21T06:15:57.687Z,35.3
2023-05-21T06:16:59.517Z,35.3
2023-05-21T06:18:01.225Z,35.3
2023-05-21T06:19:03.283Z,35.3
2023-05-21T06:20:05.407Z,35.2
2023-05-21T06:21:07.032Z,35.1
2023-05-21T06:22:08.705Z,35.2
2023-05-21T06:23:10.649Z,35.2
2023-05-21T06:24:12.309Z,35.2
2023-05-21T06:25:14.258Z,35.2
2023-05-21T06:26:16.054Z,35.2
2023-05-21T06:27:17.628Z,35.2
2023-05-21T06:28:19.374Z,35.1
2023-05-21T06:29:21.025Z,35.1
2023-05-21T06:30:22.695Z,35.1
2023-05-21T06:31:24.556Z,35.1
2023-05-21T06:32:26.646Z,35.1
2023-05-21T06:33:29.012Z,35.1
2023-05-21T06:34:31.328Z,35.1
2023-05-21T06:35:33.020Z,35.1
2023-05-21T06:36:34.701Z,35.1
2023-05-21T06:37:36.537Z,35.1
2023-05-21T06:38:38.167Z,35.1
2023-05-21T06:39:39.844Z,35.1
2023-05-21T06:40:41.576Z,35.2
2023-05-21T06:41:43.450Z,35.2
2023-05-21T06:42:45.403Z,35.1
2023-05-21T06:43:47.248Z,35.1
2023-05-21T06:44:49.112Z,35.1
2023-05-21T06:45:50.983Z,35.1
2023-05-21T06:46:52.788Z,35.1
2023-05-21T06:47:54.541Z,35
2023-05-21T06:48:56.370Z,35
2023-05-21T06:49:58.002Z,34.9
2023-05-21T06:50:59.612Z,34.9
2023-05-21T06:52:01.285Z,34.9
2023-05-21T06:53:02.937Z,34.9
2023-05-21T06:54:04.572Z,34.9
2023-05-21T06:55:06.246Z,34.9
2023-05-21T06:56:07.980Z,34.9
2023-05-21T06:57:09.635Z,35
2023-05-21T06:58:11.347Z,34.8
2023-05-21T06:59:13.060Z,34.6
2023-05-21T07:00:14.751Z,34.6
2023-05-21T07:01:16.705Z,34.5
2023-05-21T07:02:18.855Z,34.5
2023-05-21T07:03:21.451Z,34.3
2023-05-21T07:04:23.619Z,34.3
2023-05-21T07:05:25.299Z,34.3
2023-05-21T07:06:26.954Z,34.2
2023-05-21T07:07:28.583Z,34.1
2023-05-21T07:08:30.205Z,34.1
2023-05-21T07:09:31.867Z,34
2023-05-21T07:10:33.500Z,34
2023-05-21T07:11:35.199Z,34
2023-05-21T07:12:36.785Z,34
2023-05-21T07:13:38.393Z,34.2
2023-05-21T07:14:40.253Z,34.1
2023-05-21T07:15:41.939Z,34
2023-05-21T07:16:43.753Z,34
2023-05-21T07:17:45.665Z,33.8
2023-05-21T07:18:47.775Z,33.7
2023-05-21T07:19:49.462Z,33.7
2023-05-21T07:20:51.125Z,33.6
2023-05-21T07:21:52.814Z,33.6
2023-05-21T07:22:54.675Z,33.5
2023-05-21T07:23:56.637Z,33.5
2023-05-21T07:24:58.485Z,33.5
2023-05-21T07:26:00.450Z,33.4
2023-05-21T07:27:24.505Z,33.4
2023-05-21T07:28:27.930Z,33.3
2023-05-21T07:29:29.528Z,33.3
2023-05-21T07:30:31.181Z,33.2
2023-05-21T07:31:33.174Z,33.2
2023-05-21T07:32:35.430Z,33.2
2023-05-21T07:33:37.633Z,33.1
2023-05-21T07:34:39.233Z,33
2023-05-21T07:35:40.857Z,33
2023-05-21T07:36:42.545Z,33
2023-05-21T07:37:44.192Z,33
2023-05-21T07:38:45.963Z,33
2023-05-21T07:39:47.605Z,33
2023-05-21T07:40:49.212Z,32.9
2023-05-21T07:41:50.867Z,33
2023-05-21T07:42:52.450Z,33
2023-05-21T07:43:54.069Z,33
2023-05-21T07:44:55.749Z,32.9
2023-05-21T07:45:57.608Z,32.9
2023-05-21T07:46:59.462Z,32.9
2023-05-21T07:48:01.281Z,32.9
2023-05-21T07:49:03.427Z,32.9
2023-05-21T07:50:05.064Z,32.9
2023-05-21T07:51:06.710Z,32.8
2023-05-21T07:52:08.507Z,32.7
2023-05-21T07:53:10.513Z,32.7
2023-05-21T07:54:12.382Z,32.7
2023-05-21T07:55:14.018Z,32.6
2023-05-21T07:56:15.690Z,32.6
2023-05-21T07:57:17.336Z,32.4
2023-05-21T07:58:19.096Z,32.2
2023-05-21T07:59:21.105Z,32.1
2023-05-21T08:00:22.722Z,32
2023-05-21T08:01:24.292Z,31.8
2023-05-21T08:02:26.255Z,31.8
2023-05-21T08:03:28.809Z,31.7
2023-05-21T08:04:31.422Z,31.7
2023-05-21T08:05:33.783Z,31.7
2023-05-21T08:06:35.721Z,31.7
2023-05-21T08:07:37.378Z,31.6
2023-05-21T08:08:39.018Z,31.6
2023-05-21T08:09:40.873Z,31.5
2023-05-21T08:10:42.493Z,31.4
2023-05-21T08:11:44.189Z,31.4
2023-05-21T08:12:45.836Z,31.3
2023-05-21T08:13:47.544Z,31.3
2023-05-21T08:14:49.213Z,31.2
2023-05-21T08:15:53.751Z,31.2
2023-05-21T08:16:55.536Z,31.1
2023-05-21T08:17:57.241Z,31
2023-05-21T08:18:59.364Z,31
2023-05-21T08:20:01.137Z,30.8
2023-05-21T08:21:02.961Z,30.8
2023-05-21T08:22:04.818Z,30.8
2023-05-21T08:23:06.773Z,30.7
2023-05-21T08:24:08.627Z,30.7
2023-05-21T08:25:10.381Z,30.7
2023-05-21T08:26:12.215Z,30.6
2023-05-21T08:27:14.054Z,30.5
2023-05-21T08:28:15.941Z,30.5
2023-05-21T08:29:17.569Z,30.5
2023-05-21T08:30:19.193Z,30.4
2023-05-21T08:31:21.067Z,30.4
2023-05-21T08:32:23.322Z,30.4
2023-05-21T08:33:25.291Z,30.4
2023-05-21T08:34:27.119Z,30.4
2023-05-21T08:35:29.109Z,30.4
2023-05-21T08:36:30.925Z,30.4
2023-05-21T08:37:32.681Z,30.4
2023-05-21T08:38:34.451Z,30.3
2023-05-21T08:39:36.351Z,30.2
2023-05-21T08:40:38.396Z,30.3
2023-05-21T08:41:40.176Z,30.2
2023-05-21T08:42:41.813Z,30.3
2023-05-21T08:43:43.670Z,30.2
2023-05-21T08:44:45.264Z,30.3
2023-05-21T08:45:47.081Z,30.2
2023-05-21T08:46:48.697Z,30.2
2023-05-21T08:47:50.587Z,30.2
2023-05-21T08:48:52.611Z,30.2
2023-05-21T08:49:54.459Z,30.1
2023-05-21T08:50:56.238Z,30.1
2023-05-21T08:51:58.160Z,30.2
2023-05-21T08:53:00.016Z,30.1
2023-05-21T08:54:01.877Z,30
2023-05-21T08:55:03.708Z,30
2023-05-21T08:56:05.561Z,29.8
2023-05-21T08:57:07.406Z,29.8
2023-05-21T08:58:09.359Z,29.8
2023-05-21T08:59:11.549Z,29.7
2023-05-21T09:00:13.325Z,29.8
2023-05-21T09:01:15.006Z,29.7
2023-05-21T09:02:16.740Z,29.8
2023-05-21T09:03:18.941Z,29.8
2023-05-21T09:04:22.260Z,29.8
2023-05-21T09:05:24.258Z,29.7
2023-05-21T09:06:26.341Z,29.7
2023-05-21T09:07:28.150Z,29.8
2023-05-21T09:08:29.899Z,29.6
2023-05-21T09:09:31.664Z,29.6
2023-05-21T09:10:33.517Z,29.8
2023-05-21T09:11:35.455Z,29.4
2023-05-21T09:12:37.068Z,29.4
2023-05-21T09:13:39.335Z,29.3
2023-05-21T09:14:41.105Z,29.3
2023-05-21T09:15:42.747Z,29.2
2023-05-21T09:16:44.733Z,29.2
2023-05-21T09:17:46.712Z,29.2
2023-05-21T09:18:48.657Z,29.2
2023-05-21T09:19:50.571Z,29
2023-05-21T09:20:52.522Z,29
2023-05-21T09:21:54.369Z,29.1
2023-05-21T09:22:56.324Z,29
2023-05-21T09:23:58.055Z,28.9
2023-05-21T09:24:59.820Z,28.9
2023-05-21T09:26:01.669Z,28.8
2023-05-21T09:27:03.322Z,28.7
2023-05-21T09:28:04.963Z,28.6
2023-05-21T09:29:06.648Z,28.5
2023-05-21T09:30:08.461Z,28.4
2023-05-21T09:31:10.441Z,28.3
2023-05-21T09:32:12.471Z,28.3
2023-05-21T09:33:14.432Z,28.3
2023-05-21T09:34:16.472Z,28.2
2023-05-21T09:35:18.294Z,28.1
2023-05-21T09:36:20.167Z,28.1
2023-05-21T09:37:28.046Z,28.2
2023-05-21T09:38:30.018Z,28.2
2023-05-21T09:39:31.979Z,27.9
2023-05-21T09:40:33.814Z,28
2023-05-21T09:41:36.384Z,28
2023-05-21T09:42:38.123Z,28
2023-05-21T09:43:39.856Z,28
2023-05-21T09:44:41.522Z,27.9
2023-05-21T09:45:43.365Z,27.9
2023-05-21T09:46:45.300Z,27.9
2023-05-21T09:47:47.313Z,27.8
2023-05-21T09:48:49.234Z,27.8
2023-05-21T09:49:54.056Z,27.7
2023-05-21T09:50:55.900Z,27.7
2023-05-21T09:51:57.874Z,27.6
2023-05-21T09:53:00.298Z,27.9
2023-05-21T09:54:02.110Z,27.7
2023-05-21T09:55:03.912Z,27.8
2023-05-21T09:56:05.535Z,27.8
2023-05-21T09:57:07.151Z,27.7
2023-05-21T09:58:08.847Z,27.6
2023-05-21T09:59:10.800Z,27.5
2023-05-21T10:00:12.680Z,27.4
2023-05-21T10:01:14.303Z,27.4
2023-05-21T10:02:16.512Z,27.4
2023-05-21T10:03:18.754Z,27.3
2023-05-21T10:04:20.625Z,27.3
2023-05-21T10:05:22.639Z,27.3
2023-05-21T10:06:24.229Z,27.1
2023-05-21T10:07:25.926Z,27
2023-05-21T10:08:28.072Z,27.2
2023-05-21T10:09:29.671Z,27.3
2023-05-21T10:10:31.476Z,27.2
2023-05-21T10:11:33.465Z,27.1
2023-05-21T10:12:35.076Z,27.2
2023-05-21T10:13:36.690Z,26.9
2023-05-21T10:14:38.286Z,27.1
2023-05-21T10:15:39.934Z,26.8
2023-05-21T10:16:41.896Z,26.8
2023-05-21T10:17:43.930Z,27
2023-05-21T10:18:45.867Z,26.8
2023-05-21T10:19:47.537Z,26.7
2023-05-21T10:20:49.134Z,26.8
2023-05-21T10:21:52.852Z,26.7
2023-05-21T10:22:54.511Z,26.8
2023-05-21T10:23:56.225Z,26.8
2023-05-21T10:24:57.872Z,26.8
2023-05-21T10:25:59.590Z,26.8
2023-05-21T10:27:01.212Z,26.8
2023-05-21T10:28:02.784Z,26.9
2023-05-21T10:29:04.394Z,26.8
2023-05-21T10:30:06.049Z,26.8
2023-05-21T10:31:07.659Z,26.9
2023-05-21T10:32:09.623Z,26.8
2023-05-21T10:33:11.659Z,26.9
2023-05-21T10:34:13.546Z,26.9
2023-05-21T10:35:15.171Z,26.9
2023-05-21T10:36:16.764Z,27
2023-05-21T10:37:18.468Z,26.9
2023-05-21T10:38:20.135Z,27
2023-05-21T10:39:21.806Z,27
2023-05-21T10:40:23.411Z,27
2023-05-21T10:41:27.751Z,27
2023-05-21T10:42:29.528Z,27
2023-05-21T10:43:31.170Z,27
2023-05-21T10:44:32.855Z,27
2023-05-21T10:45:34.593Z,27
2023-05-21T10:46:36.458Z,27
2023-05-21T10:47:38.120Z,27.1
2023-05-21T10:48:40.096Z,27.1
2023-05-21T10:49:41.782Z,27.1
2023-05-21T10:50:43.556Z,27.2
2023-05-21T10:51:45.154Z,27.2
2023-05-21T10:52:46.798Z,27.2
2023-05-21T10:53:48.417Z,27.1
2023-05-21T10:54:50.228Z,27.1
2023-05-21T10:55:52.018Z,27.1
2023-05-21T10:56:53.657Z,27.2
2023-05-21T10:57:55.252Z,27.2
2023-05-21T10:58:56.891Z,27.3
2023-05-21T10:59:58.473Z,27.3
2023-05-21T11:01:00.184Z,27.3
2023-05-21T11:02:02.147Z,27.3
2023-05-21T11:03:04.263Z,27.3
2023-05-21T11:04:06.571Z,27.3
2023-05-21T11:05:08.231Z,27.3
2023-05-21T11:06:09.933Z,27.3
2023-05-21T11:07:11.752Z,27.2
2023-05-21T11:08:13.475Z,27.3
2023-05-21T11:09:15.072Z,27.3
2023-05-21T11:10:16.718Z,27.3
2023-05-21T11:11:18.354Z,27.4
2023-05-21T11:12:20.117Z,27.3
2023-05-21T11:13:21.897Z,27.3
2023-05-21T11:14:23.832Z,27.3
2023-05-21T11:15:25.433Z,27.3
2023-05-21T11:16:27.082Z,27.3
2023-05-21T11:17:28.858Z,27.3
2023-05-21T11:18:30.905Z,27.3
2023-05-21T11:19:34.657Z,27.3
2023-05-21T11:20:37.284Z,27.3
2023-05-21T11:21:39.679Z,27.4
2023-05-21T11:22:41.484Z,27.2
2023-05-21T11:23:43.156Z,27.2
2023-05-21T11:24:44.740Z,27.3
2023-05-21T11:25:47.670Z,27.3
2023-05-21T11:26:49.313Z,27.2
2023-05-21T11:27:51.033Z,27.2
2023-05-21T11:28:52.672Z,27.2
2023-05-21T11:29:54.307Z,27.1
2023-05-21T11:30:55.950Z,27.1
2023-05-21T11:31:57.627Z,27.1
2023-05-21T11:32:59.318Z,27.2
2023-05-21T11:34:01.413Z,27.3
2023-05-21T11:35:03.114Z,27.3
2023-05-21T11:36:04.700Z,27.3
2023-05-21T11:37:06.496Z,27.3
2023-05-21T11:38:08.204Z,27.4
2023-05-21T11:39:12.562Z,27.4
2023-05-21T11:40:14.175Z,27.4
2023-05-21T11:41:15.834Z,27.4
2023-05-21T11:42:17.499Z,27.5
2023-05-21T11:43:19.092Z,27.4
2023-05-21T11:44:20.948Z,27.3
2023-05-21T11:45:22.534Z,27.3
2023-05-21T11:46:24.253Z,27.4
2023-05-21T11:47:26.715Z,27.4
2023-05-21T11:48:32.394Z,27.3
2023-05-21T11:49:34.363Z,27.3
2023-05-21T11:50:36.405Z,27.3
2023-05-21T11:51:38.861Z,27.4
2023-05-21T11:52:40.514Z,27.5
2023-05-21T11:53:44.627Z,27.5
2023-05-21T11:54:46.651Z,27.4
2023-05-21T11:55:48.268Z,27.4
2023-05-21T11:56:49.902Z,27.5
2023-05-21T11:57:51.598Z,27.5
2023-05-21T11:58:53.523Z,27.5
2023-05-21T11:59:55.133Z,27.4
2023-05-21T12:00:56.838Z,27.4
2023-05-21T12:01:58.456Z,27.4
2023-05-21T12:03:00.347Z,27.5
2023-05-21T12:04:02.431Z,27.5
2023-05-21T12:05:04.820Z,27.5
2023-05-21T12:06:06.729Z,27.6
2023-05-21T12:07:08.720Z,27.7
2023-05-21T12:08:10.304Z,27.7
2023-05-21T12:09:12.032Z,27.7
2023-05-21T12:10:13.851Z,27.7
2023-05-21T12:11:15.714Z,27.8
2023-05-21T12:12:17.386Z,27.8
2023-05-21T12:13:18.972Z,27.8
2023-05-21T12:14:20.939Z,27.8
2023-05-21T12:15:23.092Z,27.8
2023-05-21T12:16:25.048Z,27.8
2023-05-21T12:17:27.028Z,27.8
2023-05-21T12:18:28.748Z,27.9
2023-05-21T12:19:30.701Z,27.8
2023-05-21T12:20:32.731Z,27.8
2023-05-21T12:21:34.341Z,27.8
2023-05-21T12:22:36.144Z,27.9
2023-05-21T12:23:37.735Z,27.9
2023-05-21T12:24:39.330Z,28
2023-05-21T12:25:40.998Z,28
2023-05-21T12:26:42.568Z,28.1
2023-05-21T12:27:44.272Z,28.2
2023-05-21T12:28:45.904Z,28.3
2023-05-21T12:29:47.550Z,28.3
2023-05-21T12:30:49.163Z,28.4
2023-05-21T12:31:51.064Z,28.3
2023-05-21T12:32:53.101Z,28.4
2023-05-21T12:33:55.145Z,28.4
2023-05-21T12:34:56.754Z,28.5
2023-05-21T12:35:58.591Z,28.5
2023-05-21T12:37:00.385Z,28.5
2023-05-21T12:38:02.020Z,28.6
2023-05-21T12:39:03.647Z,28.6
2023-05-21T12:40:05.260Z,28.6
2023-05-21T12:41:07.099Z,28.7
2023-05-21T12:42:08.893Z,28.7
2023-05-21T12:43:10.617Z,28.7
2023-05-21T12:44:12.239Z,28.8
2023-05-21T12:45:13.912Z,28.8
2023-05-21T12:46:16.330Z,28.8
2023-05-21T12:47:18.354Z,28.8
2023-05-21T12:48:20.021Z,28.9
2023-05-21T12:49:21.663Z,28.9
2023-05-21T12:50:23.289Z,28.9
2023-05-21T12:51:24.940Z,29
2023-05-21T12:52:26.558Z,28.9
2023-05-21T12:53:28.370Z,28.9
2023-05-21T12:54:29.972Z,28.9
2023-05-21T12:55:31.547Z,29
2023-05-21T12:56:33.210Z,29
2023-05-21T12:57:34.832Z,29
2023-05-21T12:58:36.510Z,29.1
2023-05-21T12:59:38.165Z,29.1
2023-05-21T13:00:40.565Z,29
2023-05-21T13:01:42.966Z,29
2023-05-21T13:02:45.379Z,29
2023-05-21T13:03:47.534Z,29
2023-05-21T13:04:49.403Z,29
2023-05-21T13:05:51.034Z,29
2023-05-21T13:06:52.624Z,29
2023-05-21T13:07:54.228Z,29
2023-05-21T13:08:55.892Z,29
2023-05-21T13:09:57.517Z,29
2023-05-21T13:10:59.134Z,29
2023-05-21T13:12:00.865Z,29
2023-05-21T13:13:02.537Z,29.1
2023-05-21T13:14:04.387Z,29.1
2023-05-21T13:15:06.324Z,29.1
2023-05-21T13:16:08.207Z,29.1
2023-05-21T13:17:10.330Z,29.1
2023-05-21T13:18:12.286Z,29.1
2023-05-21T13:19:14.735Z,29.2
2023-05-21T13:20:16.788Z,29.1
2023-05-21T13:21:18.379Z,29.1
2023-05-21T13:22:19.962Z,29.1
2023-05-21T13:23:21.596Z,29.1
2023-05-21T13:24:23.202Z,29.2
2023-05-21T13:25:25.387Z,29.2
2023-05-21T13:26:27.258Z,29.2
2023-05-21T13:27:29.069Z,29.2
2023-05-21T13:28:30.737Z,29.2
2023-05-21T13:29:32.344Z,29.2
2023-05-21T13:30:33.962Z,29.2
2023-05-21T13:31:35.669Z,29.2
2023-05-21T13:32:37.583Z,29.3
2023-05-21T13:33:40.106Z,29.2
2023-05-21T13:34:42.493Z,29.2
2023-05-21T13:35:44.348Z,29.2
2023-05-21T13:36:46.077Z,29.2
2023-05-21T13:37:47.702Z,29.2
2023-05-21T13:38:49.409Z,29.2
2023-05-21T13:39:51.069Z,29.2
2023-05-21T13:40:52.759Z,29.2
2023-05-21T13:41:54.406Z,29.1
2023-05-21T13:42:56.027Z,29.2
2023-05-21T13:43:57.624Z,29.2
2023-05-21T13:44:59.374Z,29.2
2023-05-21T13:46:01.068Z,29.2
2023-05-21T13:47:02.967Z,29.2
2023-05-21T13:48:04.951Z,29.3